createdAt,value
2018-09-01T00:01:41.833Z,14.10
2018-09-01T00:06:44.881Z,14.00
2018-09-01T00:11:47.926Z,14.00
2018-09-01T00:16:51.004Z,14.10
2018-09-01T00:21:54.222Z,14.10
2018-09-01T00:26:57.283Z,14.10
2018-09-01T00:32:00.365Z,14.10
2018-09-01T00:37:03.400Z,14.00
2018-09-01T00:42:06.463Z,14.00
2018-09-01T00:47:09.596Z,13.90
2018-09-01T00:52:12.663Z,13.90
2018-09-01T00:57:15.724Z,13.80
2018-09-01T01:02:18.976Z,13.90
2018-09-01T01:07:21.993Z,13.80
2018-09-01T01:12:25.004Z,13.80
2018-09-01T01:17:28.071Z,13.80
2018-09-01T01:22:31.148Z,13.70
2018-09-01T01:27:34.373Z,13.70
2018-09-01T01:32:37.689Z,13.70
2018-09-01T01:37:40.727Z,13.70
2018-09-01T01:42:43.896Z,13.60
2018-09-01T01:47:47.084Z,13.60
2018-09-01T01:52:50.113Z,13.50
2018-09-01T01:57:53.194Z,13.30
2018-09-01T02:02:56.212Z,13.20
2018-09-01T02:07:59.488Z,13.10
2018-09-01T02:13:02.600Z,13.00
2018-09-01T02:18:05.648Z,12.90
2018-09-01T02:23:08.720Z,12.80
2018-09-01T02:28:11.781Z,12.70
2018-09-01T02:33:14.998Z,12.60
2018-09-01T02:38:18.027Z,12.50
2018-09-01T02:43:21.088Z,12.40
2018-09-01T02:48:24.125Z,12.30
2018-09-01T02:53:27.165Z,12.20
2018-09-01T02:58:30.231Z,12.20
2018-09-01T03:03:33.290Z,12.10
2018-09-01T03:08:36.344Z,12.00
2018-09-01T03:13:39.415Z,11.90
2018-09-01T03:18:42.479Z,11.90
2018-09-01T03:23:45.564Z,11.80
2018-09-01T03:28:48.547Z,11.80
2018-09-01T03:33:51.590Z,11.80
2018-09-01T03:38:54.615Z,11.70
2018-09-01T03:43:57.657Z,11.70
2018-09-01T03:49:01.677Z,11.70
2018-09-01T03:54:04.922Z,11.60
2018-09-01T03:59:07.988Z,11.60
2018-09-01T04:04:11.016Z,11.50
2018-09-01T04:09:14.080Z,11.50
2018-09-01T04:14:17.133Z,11.40
2018-09-01T04:19:20.755Z,11.30
2018-09-01T04:24:23.862Z,11.30
2018-09-01T04:29:26.907Z,11.30
2018-09-01T04:34:29.981Z,11.20
2018-09-01T04:39:33.045Z,11.20
2018-09-01T04:44:36.103Z,11.20
2018-09-01T04:49:39.199Z,11.30
2018-09-01T04:54:42.311Z,11.30
2018-09-01T04:59:45.408Z,11.30
2018-09-01T05:04:49.595Z,11.40
2018-09-01T05:09:52.595Z,11.40
2018-09-01T05:14:55.607Z,11.50
2018-09-01T05:19:58.788Z,11.60
2018-09-01T05:25:01.857Z,11.70
2018-09-01T05:30:06.271Z,11.90
2018-09-01T05:35:09.299Z,12.10
2018-09-01T05:40:12.338Z,12.20
2018-09-01T05:45:15.383Z,12.40
2018-09-01T05:50:18.518Z,12.60
2018-09-01T05:55:21.582Z,12.80
2018-09-01T06:00:24.684Z,13.00
2018-09-01T06:05:27.733Z,13.20
2018-09-01T06:10:30.925Z,13.40
2018-09-01T06:15:33.996Z,13.80
2018-09-01T06:20:37.037Z,14.20
2018-09-01T06:25:40.102Z,14.70
2018-09-01T06:30:45.790Z,15.20
2018-09-01T06:35:48.983Z,16.30
2018-09-01T06:40:52.011Z,18.00
2018-09-01T06:45:55.203Z,19.90
2018-09-01T06:50:58.218Z,20.80
2018-09-01T06:56:01.284Z,21.60
2018-09-01T07:01:04.317Z,22.90
2018-09-01T07:06:07.379Z,23.40
2018-09-01T07:11:10.436Z,23.50
2018-09-01T07:16:13.523Z,24.10
2018-09-01T07:21:16.608Z,23.90
2018-09-01T07:26:19.726Z,24.80
2018-09-01T07:31:23.072Z,24.70
2018-09-01T07:36:25.836Z,25.40
2018-09-01T07:41:28.907Z,25.20
2018-09-01T07:46:32.052Z,25.40
2018-09-01T07:51:35.083Z,25.40
2018-09-01T07:56:38.179Z,25.70
2018-09-01T08:01:41.216Z,26.40
2018-09-01T08:06:44.267Z,26.30
2018-09-01T08:11:47.443Z,26.50
2018-09-01T08:16:50.528Z,26.10
2018-09-01T08:21:53.611Z,25.80
2018-09-01T08:26:58.700Z,26.30
2018-09-01T08:32:01.826Z,26.20
2018-09-01T08:37:05.001Z,26.10
2018-09-01T08:42:08.667Z,25.90
2018-09-01T08:47:11.728Z,26.30
2018-09-01T08:52:14.832Z,25.60
2018-09-01T08:57:17.897Z,24.70
2018-09-01T09:02:21.008Z,24.30
2018-09-01T09:07:24.050Z,24.20
2018-09-01T09:12:27.115Z,24.10
2018-09-01T09:17:30.161Z,24.00
2018-09-01T09:22:33.241Z,23.50
2018-09-01T09:27:36.312Z,23.00
2018-09-01T09:32:39.388Z,22.90
2018-09-01T09:37:42.545Z,22.80
2018-09-01T09:42:45.678Z,22.30
2018-09-01T09:47:48.837Z,21.90
2018-09-01T09:52:51.894Z,22.30
2018-09-01T09:57:54.992Z,22.40
2018-09-01T10:02:58.032Z,22.20
2018-09-01T10:08:01.102Z,22.00
2018-09-01T10:13:04.171Z,21.90
2018-09-01T10:18:07.699Z,22.30
2018-09-01T10:23:10.752Z,22.10
2018-09-01T10:28:13.806Z,21.90
2018-09-01T10:33:16.817Z,21.60
2018-09-01T10:38:19.866Z,21.50
2018-09-01T10:43:22.896Z,21.80
2018-09-01T10:49:50.486Z,22.20
2018-09-01T10:54:53.603Z,22.40
2018-09-01T10:59:56.648Z,23.00
2018-09-01T11:04:59.805Z,23.10
2018-09-01T11:10:02.810Z,22.50
2018-09-01T11:15:06.419Z,21.90
2018-09-01T11:20:09.483Z,21.50
2018-09-01T11:25:12.534Z,21.60
2018-09-01T11:30:15.553Z,21.80
2018-09-01T11:35:18.665Z,22.00
2018-09-01T11:40:21.720Z,22.40
2018-09-01T11:45:24.823Z,22.10
2018-09-01T11:50:27.936Z,22.10
2018-09-01T11:55:31.306Z,22.00
2018-09-01T12:00:34.403Z,21.90
2018-09-01T12:05:37.453Z,21.80
2018-09-01T12:10:40.581Z,22.00
2018-09-01T12:15:43.630Z,22.20
2018-09-01T12:20:46.695Z,22.50
2018-09-01T12:25:49.823Z,22.70
2018-09-01T12:30:53.018Z,22.80
2018-09-01T12:35:56.187Z,23.00
2018-09-01T12:40:59.400Z,23.10
2018-09-01T12:46:02.435Z,23.20
2018-09-01T12:51:05.583Z,23.20
2018-09-01T12:56:08.790Z,23.10
2018-09-01T13:01:11.857Z,23.10
2018-09-01T13:11:16.408Z,23.20
2018-09-01T13:16:19.573Z,23.00
2018-09-01T13:21:22.631Z,22.90
2018-09-01T13:26:25.742Z,23.00
2018-09-01T13:31:28.968Z,23.10
2018-09-01T13:36:32.053Z,23.00
2018-09-01T13:41:35.634Z,22.80
2018-09-01T13:46:38.696Z,22.60
2018-09-01T13:51:42.038Z,22.70
2018-09-01T13:56:45.087Z,22.50
2018-09-01T14:01:48.171Z,22.60
2018-09-01T14:06:51.214Z,22.60
2018-09-01T14:11:54.272Z,22.60
2018-09-01T14:16:57.336Z,22.50
2018-09-01T14:22:00.389Z,22.50
2018-09-01T14:27:03.713Z,22.40
2018-09-01T14:32:06.729Z,22.40
2018-09-01T14:37:09.904Z,22.20
2018-09-01T14:42:12.847Z,22.00
2018-09-01T14:47:15.959Z,21.90
2018-09-01T14:52:18.982Z,21.80
2018-09-01T14:57:22.099Z,21.90
2018-09-01T15:02:25.196Z,21.90
2018-09-01T15:07:28.243Z,22.00
2018-09-01T15:12:31.285Z,22.10
2018-09-01T15:17:34.316Z,22.10
2018-09-01T15:22:37.391Z,22.20
2018-09-01T15:27:40.549Z,22.10
2018-09-01T15:32:43.749Z,22.20
2018-09-01T15:37:46.798Z,22.20
2018-09-01T15:42:49.893Z,22.20
2018-09-01T15:47:52.985Z,22.20
2018-09-01T15:52:56.001Z,22.10
2018-09-01T15:57:59.021Z,22.00
2018-09-01T16:03:02.080Z,21.90
2018-09-01T16:08:05.607Z,21.70
2018-09-01T16:13:08.648Z,21.70
2018-09-01T16:18:11.711Z,21.60
2018-09-01T16:23:14.824Z,21.70
2018-09-01T16:28:17.864Z,21.70
2018-09-01T16:33:20.910Z,21.60
2018-09-01T16:38:23.960Z,21.50
2018-09-01T16:43:27.068Z,21.40
2018-09-01T16:48:30.280Z,21.30
2018-09-01T16:53:33.400Z,21.30
2018-09-01T16:58:36.447Z,21.30
2018-09-01T17:03:39.506Z,21.20
2018-09-01T17:08:42.587Z,21.20
2018-09-01T17:13:45.824Z,21.10
2018-09-01T17:18:48.844Z,21.00
2018-09-01T17:23:51.899Z,20.80
2018-09-01T17:28:55.044Z,20.60
2018-09-01T17:33:58.120Z,20.40
2018-09-01T17:39:01.221Z,20.20
2018-09-01T17:44:04.783Z,20.00
2018-09-01T17:49:07.848Z,19.90
2018-09-01T17:54:10.877Z,19.80
2018-09-01T17:59:14.321Z,19.60
2018-09-01T18:04:17.385Z,19.50
2018-09-01T18:09:20.721Z,19.40
2018-09-01T18:14:24.989Z,19.20
2018-09-01T18:19:28.583Z,19.10
2018-09-01T18:24:33.271Z,19.00
2018-09-01T18:29:36.341Z,18.90
2018-09-01T18:34:39.442Z,18.80
2018-09-01T18:39:42.587Z,18.70
2018-09-01T18:44:47.060Z,18.60
2018-09-01T18:49:50.149Z,18.50
2018-09-01T18:54:53.245Z,18.40
2018-09-01T18:59:56.302Z,18.30
2018-09-01T19:04:59.398Z,18.30
2018-09-01T19:10:02.457Z,18.20
2018-09-01T19:15:07.484Z,18.20
2018-09-01T19:20:13.703Z,18.20
2018-09-01T19:25:17.809Z,18.20
2018-09-01T19:30:20.847Z,18.20
2018-09-01T19:35:24.952Z,18.20
2018-09-01T19:40:28.026Z,18.20
2018-09-01T19:45:31.300Z,18.20
2018-09-01T19:50:34.257Z,18.10
2018-09-01T19:55:37.335Z,18.10
2018-09-01T20:00:40.429Z,18.10
2018-09-01T20:05:43.496Z,18.10
2018-09-01T20:10:46.582Z,18.00
2018-09-01T20:15:49.663Z,18.00
2018-09-01T20:20:52.803Z,17.90
2018-09-01T20:25:55.943Z,17.80
2018-09-01T20:31:00.100Z,17.80
2018-09-01T20:36:03.215Z,17.80
2018-09-01T20:41:06.285Z,17.80
2018-09-01T20:46:09.358Z,17.70
2018-09-01T20:51:12.464Z,17.70
2018-09-01T20:56:15.808Z,17.60
2018-09-01T21:01:18.872Z,17.50
2018-09-01T21:06:21.902Z,17.40
2018-09-01T21:11:25.004Z,17.20
2018-09-01T21:16:29.439Z,17.10
2018-09-01T21:21:32.507Z,17.00
2018-09-01T21:26:35.723Z,17.00
2018-09-01T21:31:38.744Z,16.90
2018-09-01T21:36:41.781Z,16.90
2018-09-01T21:41:44.841Z,16.90
2018-09-01T21:46:47.869Z,16.90
2018-09-01T21:51:50.920Z,16.90
2018-09-01T21:56:53.932Z,17.00
2018-09-01T22:02:02.410Z,17.00
2018-09-01T22:07:05.471Z,17.00
2018-09-01T22:12:08.544Z,16.90
2018-09-01T22:17:11.590Z,16.90
2018-09-01T22:22:15.806Z,16.90
2018-09-01T22:27:18.812Z,16.90
2018-09-01T22:32:21.869Z,16.90
2018-09-01T22:37:24.920Z,16.90
2018-09-01T22:42:27.937Z,16.90
2018-09-01T22:47:32.427Z,16.80
2018-09-01T22:52:35.554Z,16.70
2018-09-01T22:57:38.861Z,16.70
2018-09-01T23:02:41.979Z,16.70
2018-09-01T23:07:45.089Z,16.60
2018-09-01T23:12:48.428Z,16.60
2018-09-01T23:17:51.502Z,16.60
2018-09-01T23:22:54.552Z,16.60
2018-09-01T23:27:57.635Z,16.50
2018-09-01T23:33:00.721Z,16.50
2018-09-01T23:38:03.746Z,16.50
2018-09-01T23:43:06.908Z,16.50
2018-09-01T23:48:10.205Z,16.60
2018-09-01T23:53:13.265Z,16.60
2018-09-01T23:58:16.392Z,16.70
